Time;durP1;ratioP1;P1;durP2;ratioP2;P2;SDS_P1;SDS_P2;PMS_P1;PMS_P2;Temp;Humidity;BMP_temperature;BMP_pressure;BME280_temperature;BME280_humidity;BME280_pressure;Samples;Min_cycle;Max_cycle;Signal;HPM_P1;HPM_P2
2021/03/06 00:00:28;;;;;;;23.98;9.00;;;12.40;51.60;;;;;;6109701;29;20099;-77
2021/03/06 00:03:29;;;;;;;18.15;8.20;;;12.40;51.70;;;;;;6127179;29;20198;-77
2021/03/06 00:06:30;;;;;;;18.08;7.88;;;12.30;51.90;;;;;;6126479;29;20040;-76
2021/03/06 00:09:31;;;;;;;17.17;7.65;;;12.30;52.00;;;;;;6110280;29;20657;-76
2021/03/06 00:12:32;;;;;;;21.55;7.50;;;12.20;52.10;;;;;;6127253;29;20055;-76
2021/03/06 00:15:33;;;;;;;19.23;8.85;;;12.10;52.40;;;;;;6110703;29;20050;-77
2021/03/06 00:18:34;;;;;;;20.85;8.02;;;12.10;52.50;;;;;;6110846;29;20040;-77
2021/03/06 00:21:35;;;;;;;23.63;8.68;;;12.00;52.70;;;;;;6110521;29;20365;-77
2021/03/06 00:24:36;;;;;;;20.17;8.05;;;11.90;52.80;;;;;;6097899;29;20043;-77
2021/03/06 00:27:37;;;;;;;22.42;8.75;;;11.90;53.10;;;;;;6118403;29;20040;-77
2021/03/06 00:30:38;;;;;;;19.65;8.18;;;11.80;53.20;;;;;;6110372;29;20067;-78
2021/03/06 00:33:40;;;;;;;19.77;8.43;;;11.70;53.20;;;;;;6122332;29;20047;-78
2021/03/06 00:36:41;;;;;;;24.20;8.07;;;11.70;53.30;;;;;;6111608;29;20040;-78
2021/03/06 00:39:42;;;;;;;20.80;8.57;;;11.70;53.30;;;;;;6126518;29;20063;-77
2021/03/06 00:42:43;;;;;;;19.15;7.63;;;11.70;53.40;;;;;;6110180;29;20040;-77
2021/03/06 00:45:44;;;;;;;20.45;8.27;;;11.70;53.50;;;;;;6127065;29;20475;-77
2021/03/06 00:48:45;;;;;;;20.73;8.70;;;11.70;53.60;;;;;;6109536;29;20056;-77
2021/03/06 00:51:46;;;;;;;24.30;9.02;;;11.60;53.50;;;;;;6109827;29;20040;-77
2021/03/06 00:54:53;;;;;;;21.02;7.72;;;11.70;53.60;;;;;;6110246;29;20048;-77
2021/03/06 00:57:55;;;;;;;21.15;7.88;;;11.70;53.50;;;;;;6109201;29;20043;-77
2021/03/06 01:00:56;;;;;;;25.17;9.18;;;11.70;53.50;;;;;;6124140;29;20054;-77
2021/03/06 01:03:58;;;;;;;22.02;8.25;;;11.70;53.60;;;;;;6114312;29;20047;-77
2021/03/06 01:06:59;;;;;;;21.85;8.68;;;11.70;53.70;;;;;;6130788;29;20047;-77
2021/03/06 01:10:00;;;;;;;19.65;7.95;;;11.60;53.70;;;;;;6117228;29;20446;-76
2021/03/06 01:13:01;;;;;;;21.23;8.10;;;11.60;53.90;;;;;;6130940;29;20051;-79
2021/03/06 01:16:03;;;;;;;20.70;7.32;;;11.50;53.90;;;;;;6130810;29;20054;-76
2021/03/06 01:19:04;;;;;;;24.88;8.77;;;11.50;54.10;;;;;;6114117;29;20039;-77
2021/03/06 01:22:05;;;;;;;16.88;7.90;;;11.40;54.10;;;;;;6131120;29;20051;-79
2021/03/06 01:25:07;;;;;;;21.35;8.35;;;11.40;54.10;;;;;;6114346;29;20036;-78
2021/03/06 01:28:08;;;;;;;16.05;7.60;;;11.40;54.20;;;;;;6114118;29;20035;-77
2021/03/06 01:31:09;;;;;;;20.13;7.93;;;11.30;54.20;;;;;;6114459;29;20048;-77
2021/03/06 01:34:10;;;;;;;23.73;8.27;;;11.30;54.30;;;;;;6113942;29;20047;-77
2021/03/06 01:37:11;;;;;;;17.33;7.25;;;11.30;54.40;;;;;;6130155;29;20046;-77
2021/03/06 01:40:14;;;;;;;19.83;8.13;;;11.20;54.50;;;;;;6113148;29;20131;-76
2021/03/06 01:43:18;;;;;;;23.75;8.77;;;11.20;54.50;;;;;;6108068;29;20373;-77
2021/03/06 01:46:20;;;;;;;20.15;7.10;;;11.10;54.60;;;;;;6121950;29;20043;-78
2021/03/06 01:49:20;;;;;;;21.83;8.10;;;11.10;54.70;;;;;;6122627;29;20096;-76
2021/03/06 01:52:21;;;;;;;21.05;8.40;;;11.10;54.90;;;;;;6133543;29;20548;-78
2021/03/06 01:55:25;;;;;;;18.38;7.43;;;11.10;54.80;;;;;;6113713;29;20139;-77
2021/03/06 01:58:26;;;;;;;24.27;8.50;;;11.10;54.90;;;;;;6113999;29;20036;-76
2021/03/06 02:01:27;;;;;;;16.67;6.95;;;11.10;54.90;;;;;;6126556;29;20038;-75
2021/03/06 02:04:28;;;;;;;19.52;7.88;;;11.00;54.90;;;;;;6130764;29;20462;-76
2021/03/06 02:07:29;;;;;;;23.65;9.20;;;11.10;55.00;;;;;;6119776;29;20050;-77
2021/03/06 02:10:33;;;;;;;16.92;7.38;;;11.00;54.90;;;;;;6112769;29;20373;-77
2021/03/06 02:13:54;;;;;;;15.30;7.80;;;11.00;54.90;;;;;;6101467;29;20373;-77
2021/03/06 02:17:11;;;;;;;16.52;7.63;;;11.00;54.90;;;;;;6117143;29;20038;-78
2021/03/06 02:20:39;;;;;;;15.95;7.78;;;11.00;54.90;;;;;;6126451;29;20098;-77
2021/03/06 02:23:46;;;;;;;18.60;7.32;;;11.00;54.90;;;;;;6110078;29;20050;-78
2021/03/06 02:27:05;;;;;;;25.63;8.23;;;11.00;54.90;;;;;;6110593;29;20047;-78
2021/03/06 02:30:11;;;;;;;;;;;11.00;54.90;;;;;;6120168;29;20031;-76
2021/03/06 02:33:14;;;;;;;17.25;7.68;;;11.00;54.80;;;;;;6117870;29;20343;-76
2021/03/06 02:36:20;;;;;;;22.55;8.52;;;11.00;54.80;;;;;;6101126;29;20070;-75
2021/03/06 02:39:25;;;;;;;18.40;8.30;;;11.00;54.90;;;;;;6109486;29;20167;-76
2021/03/06 02:42:26;;;;;;;21.08;8.35;;;11.00;55.00;;;;;;6111050;29;20035;-76
2021/03/06 02:45:30;;;;;;;16.58;7.30;;;11.00;55.00;;;;;;6111014;29;20031;-77
2021/03/06 02:48:33;;;;;;;18.05;8.40;;;11.00;55.10;;;;;;6111093;29;20043;-77
2021/03/06 02:51:42;;;;;;;24.52;8.48;;;10.90;55.10;;;;;;6112834;29;20046;-77
2021/03/06 02:54:44;;;;;;;17.02;7.38;;;10.90;55.20;;;;;;6093996;29;20028;-76
2021/03/06 02:58:09;;;;;;;16.95;7.28;;;10.90;55.20;;;;;;6110594;29;20031;-77
2021/03/06 03:01:15;;;;;;;25.00;7.75;;;10.90;55.40;;;;;;6129155;29;20035;-77
2021/03/06 03:04:30;;;;;;;20.13;7.85;;;10.80;55.40;;;;;;6104505;29;20039;-76
2021/03/06 03:07:37;;;;;;;22.00;8.18;;;10.80;55.40;;;;;;6109680;29;20429;-77
2021/03/06 03:10:47;;;;;;;12.37;4.93;;;10.80;55.50;;;;;;6094288;29;20114;-77
2021/03/06 03:13:54;;;;;;;19.15;7.43;;;10.80;55.60;;;;;;6127096;29;20293;-76
2021/03/06 03:17:10;;;;;;;18.42;7.40;;;10.80;55.50;;;;;;6094186;29;20121;-76
2021/03/06 03:20:32;;;;;;;16.55;7.30;;;10.80;55.50;;;;;;6123865;29;20477;-76
2021/03/06 03:23:39;;;;;;;18.65;7.40;;;10.80;55.60;;;;;;6122362;29;20545;-76
2021/03/06 03:26:42;;;;;;;;;;;10.80;55.60;;;;;;6111374;29;20125;-76
2021/03/06 03:29:44;;;;;;;22.00;8.18;;;10.80;55.60;;;;;;6113479;29;20001;-76
2021/03/06 03:32:46;;;;;;;22.85;7.93;;;10.70;55.40;;;;;;6108698;29;20036;-76
2021/03/06 03:35:47;;;;;;;23.17;9.45;;;10.70;55.50;;;;;;6117206;29;20131;-76
2021/03/06 03:38:49;;;;;;;21.02;7.70;;;10.70;55.70;;;;;;6106737;29;20070;-76
2021/03/06 03:41:51;;;;;;;20.52;7.95;;;10.70;55.80;;;;;;6106928;29;20051;-76
2021/03/06 03:44:52;;;;;;;19.95;8.20;;;10.60;55.70;;;;;;6107078;29;20043;-76
2021/03/06 03:47:54;;;;;;;18.58;7.90;;;10.60;55.80;;;;;;6105992;29;20119;-76
2021/03/06 03:50:55;;;;;;;21.27;8.40;;;10.60;55.90;;;;;;6123898;29;20040;-76
2021/03/06 03:53:56;;;;;;;20.55;9.32;;;10.60;56.00;;;;;;6106775;29;20051;-76
2021/03/06 03:56:57;;;;;;;22.98;8.18;;;10.60;56.00;;;;;;6122797;29;20040;-77
2021/03/06 04:04:29;;;;;;;21.33;8.00;;;10.60;56.00;;;;;;6125267;29;20044;-78
2021/03/06 04:07:42;;;;;;;19.98;8.52;;;10.50;56.10;;;;;;6127339;29;20032;-77
2021/03/06 04:10:43;;;;;;;22.77;8.57;;;10.50;56.20;;;;;;6093783;29;20038;-77
2021/03/06 04:13:44;;;;;;;20.33;8.15;;;10.50;56.20;;;;;;6126915;29;20047;-76
2021/03/06 04:16:45;;;;;;;21.88;8.07;;;10.50;56.10;;;;;;6097522;29;20031;-77
2021/03/06 04:19:46;;;;;;;21.08;8.50;;;10.60;56.10;;;;;;6110515;29;20051;-77
2021/03/06 04:22:48;;;;;;;16.90;7.43;;;10.60;56.00;;;;;;6110247;29;20040;-77
2021/03/06 04:25:49;;;;;;;28.60;8.18;;;10.70;56.00;;;;;;6127584;29;20050;-77
2021/03/06 04:28:50;;;;;;;24.70;8.23;;;10.70;56.10;;;;;;6110455;29;20056;-76
2021/03/06 04:31:51;;;;;;;19.77;8.02;;;10.60;56.10;;;;;;6110001;29;20457;-78
2021/03/06 04:34:52;;;;;;;21.52;7.43;;;10.60;56.10;;;;;;6127323;29;20031;-76
2021/03/06 04:37:53;;;;;;;19.55;7.30;;;10.60;56.10;;;;;;6115161;29;20036;-77
2021/03/06 04:40:54;;;;;;;20.27;8.85;;;10.60;56.10;;;;;;6109280;29;20066;-76
2021/03/06 04:43:55;;;;;;;21.92;8.65;;;10.60;56.10;;;;;;6115208;29;20063;-77
2021/03/06 04:46:57;;;;;;;24.13;8.73;;;10.60;56.10;;;;;;6115139;29;20064;-77
2021/03/06 04:49:59;;;;;;;24.05;10.00;;;10.60;56.10;;;;;;6114753;29;20452;-77
2021/03/06 04:53:00;;;;;;;25.13;8.82;;;10.60;56.10;;;;;;6114094;29;20035;-77
2021/03/06 04:56:02;;;;;;;20.75;8.10;;;10.60;56.00;;;;;;6114790;29;20044;-77
2021/03/06 04:59:03;;;;;;;25.27;8.65;;;10.60;56.10;;;;;;6114997;29;20058;-77
2021/03/06 05:02:04;;;;;;;24.80;10.10;;;10.60;56.10;;;;;;6131134;29;20373;-77
2021/03/06 05:05:08;;;;;;;20.17;8.55;;;10.60;56.20;;;;;;6114720;29;20044;-77
2021/03/06 05:08:09;;;;;;;23.73;9.02;;;10.70;56.10;;;;;;6113984;29;20133;-76
2021/03/06 05:11:10;;;;;;;23.30;8.77;;;10.70;56.00;;;;;;6113735;29;20044;-76
2021/03/06 05:14:11;;;;;;;26.20;9.13;;;10.70;55.90;;;;;;6131194;29;20106;-76
2021/03/06 05:17:12;;;;;;;27.48;10.02;;;10.80;55.90;;;;;;6114704;29;20373;-76
2021/03/06 05:20:13;;;;;;;18.70;8.48;;;10.80;55.80;;;;;;6114380;29;20055;-76
2021/03/06 05:23:14;;;;;;;22.40;8.02;;;10.80;55.80;;;;;;6114023;29;20382;-77
2021/03/06 05:26:15;;;;;;;21.70;9.20;;;10.80;55.80;;;;;;6098633;29;20469;-77
2021/03/06 05:29:16;;;;;;;23.33;9.98;;;10.90;55.80;;;;;;6103749;29;20458;-77
2021/03/06 05:32:17;;;;;;;23.50;9.88;;;10.90;55.80;;;;;;6113914;29;20044;-76
2021/03/06 05:35:18;;;;;;;22.70;9.77;;;10.90;55.70;;;;;;6113901;29;20059;-77
2021/03/06 05:38:19;;;;;;;23.33;9.38;;;10.90;55.60;;;;;;6119802;29;20046;-77
2021/03/06 05:41:20;;;;;;;25.35;10.55;;;11.00;55.60;;;;;;6114640;29;20381;-77
2021/03/06 05:44:21;;;;;;;20.58;9.23;;;11.00;55.50;;;;;;6113899;29;20043;-77
2021/03/06 05:47:23;;;;;;;19.90;9.20;;;11.00;55.50;;;;;;6112286;29;20473;-77
2021/03/06 05:50:25;;;;;;;22.95;8.85;;;11.10;55.40;;;;;;6113421;29;20059;-76
2021/03/06 05:53:29;;;;;;;18.38;8.43;;;11.10;55.30;;;;;;6113661;29;20059;-76
2021/03/06 05:56:31;;;;;;;36.58;9.95;;;11.20;55.20;;;;;;6123881;29;20491;-76
2021/03/06 05:59:34;;;;;;;18.10;8.15;;;11.20;55.10;;;;;;6113790;29;20457;-76
2021/03/06 06:02:35;;;;;;;19.00;8.50;;;11.30;55.60;;;;;;6130753;29;20044;-76
2021/03/06 06:05:36;;;;;;;20.10;7.93;;;11.30;54.80;;;;;;6119596;29;20532;-77
2021/03/06 06:08:38;;;;;;;24.00;8.38;;;11.30;54.60;;;;;;6134529;29;20036;-77
2021/03/06 06:11:39;;;;;;;18.70;7.07;;;11.40;54.50;;;;;;6116879;29;20105;-77
2021/03/06 06:14:41;;;;;;;15.07;7.75;;;11.40;54.40;;;;;;6100118;29;20035;-77
2021/03/06 06:17:42;;;;;;;19.27;8.38;;;11.50;54.10;;;;;;6113232;29;20039;-77
2021/03/06 06:20:43;;;;;;;20.15;7.90;;;11.30;53.90;;;;;;6112826;29;20027;-77
2021/03/06 06:24:03;;;;;;;18.08;8.05;;;11.50;54.00;;;;;;6113176;29;20421;-76
2021/03/06 06:27:04;;;;;;;16.85;6.95;;;11.50;53.90;;;;;;6107265;29;20536;-77
2021/03/06 06:30:13;;;;;;;15.60;7.28;;;11.60;53.80;;;;;;6109056;29;20036;-77
2021/03/06 06:33:32;;;;;;;15.32;6.57;;;11.60;53.50;;;;;;6111582;29;20035;-79
2021/03/06 06:36:38;;;;;;;16.55;7.82;;;11.60;53.40;;;;;;6111355;29;20153;-76
2021/03/06 06:39:40;;;;;;;15.65;7.03;;;11.60;53.30;;;;;;6092352;29;20079;-77
2021/03/06 06:42:41;;;;;;;14.75;7.10;;;11.60;53.20;;;;;;6111190;29;20095;-77
2021/03/06 06:45:42;;;;;;;23.80;7.55;;;11.60;53.00;;;;;;6111354;29;20447;-76
2021/03/06 06:48:57;;;;;;;19.17;8.02;;;11.60;52.90;;;;;;6101617;29;20365;-78
2021/03/06 06:52:06;;;;;;;18.02;7.75;;;11.60;52.90;;;;;;6110469;29;20043;-76
2021/03/06 06:55:10;;;;;;;14.90;6.70;;;11.60;52.90;;;;;;6127379;29;20043;-76
2021/03/06 06:58:11;;;;;;;16.45;7.70;;;11.60;52.80;;;;;;6110802;29;20071;-77
2021/03/06 07:01:37;;;;;;;16.90;7.20;;;11.60;52.80;;;;;;6119199;29;20036;-77
2021/03/06 07:05:01;;;;;;;15.13;6.90;;;11.60;52.60;;;;;;6056653;29;20376;-77
2021/03/06 07:08:06;;;;;;;22.70;8.35;;;11.60;52.40;;;;;;6058957;29;20055;-77
2021/03/06 07:11:23;;;;;;;15.15;7.00;;;11.60;52.40;;;;;;6086341;29;20041;-77
2021/03/06 07:14:36;;;;;;;16.70;7.95;;;11.60;52.50;;;;;;6081443;29;20040;-77
2021/03/06 07:17:40;;;;;;;14.43;7.20;;;11.70;52.50;;;;;;6079288;29;20048;-76
2021/03/06 07:20:41;;;;;;;16.98;7.30;;;11.70;52.30;;;;;;6079533;29;20474;-77
2021/03/06 07:23:42;;;;;;;19.48;7.88;;;11.70;52.40;;;;;;6079720;29;20044;-77
2021/03/06 07:26:43;;;;;;;15.98;6.80;;;11.70;52.30;;;;;;6068356;29;20060;-77
2021/03/06 07:29:44;;;;;;;21.50;8.38;;;11.70;52.20;;;;;;6079415;29;20040;-77
2021/03/06 07:32:46;;;;;;;17.95;8.15;;;11.80;52.10;;;;;;6079607;29;20386;-77
2021/03/06 07:35:48;;;;;;;19.08;7.47;;;11.90;52.00;;;;;;6066602;29;20037;-76
2021/03/06 07:38:50;;;;;;;15.35;7.45;;;11.90;51.90;;;;;;6086344;29;20058;-77
2021/03/06 07:41:58;;;;;;;21.23;8.18;;;11.90;51.80;;;;;;6110648;29;20040;-77
2021/03/06 07:44:59;;;;;;;16.52;7.72;;;11.90;51.70;;;;;;6121553;29;20042;-77
2021/03/06 07:48:07;;;;;;;17.10;7.72;;;11.90;51.70;;;;;;6122107;29;20559;-77
2021/03/06 07:51:09;;;;;;;19.10;8.55;;;11.90;51.60;;;;;;6115722;29;20461;-77
2021/03/06 07:54:13;;;;;;;16.58;7.35;;;11.90;51.70;;;;;;6128817;29;20035;-78
2021/03/06 07:57:14;;;;;;;17.30;7.65;;;11.90;51.60;;;;;;6111449;29;20036;-77
2021/03/06 08:00:39;;;;;;;17.38;8.05;;;11.90;51.60;;;;;;6110432;29;20539;-77
2021/03/06 08:03:41;;;;;;;22.88;8.40;;;12.00;51.60;;;;;;6101949;29;20052;-77
2021/03/06 08:06:42;;;;;;;24.55;8.60;;;12.00;51.30;;;;;;6102593;29;20032;-77
2021/03/06 08:09:58;;;;;;;18.08;8.75;;;12.00;51.20;;;;;;6086045;29;20036;-77
2021/03/06 08:12:59;;;;;;;18.73;7.70;;;12.10;51.30;;;;;;6091880;29;20040;-77
2021/03/06 08:16:30;;;;;;;17.80;7.57;;;12.10;51.10;;;;;;6100743;29;20481;-77
2021/03/06 08:19:31;;;;;;;24.02;10.10;;;12.10;51.00;;;;;;6078655;29;20123;-76
2021/03/06 08:22:33;;;;;;;19.55;8.57;;;12.10;50.90;;;;;;6085120;29;20051;-76
2021/03/06 08:25:34;;;;;;;18.60;8.52;;;12.10;51.00;;;;;;6111105;29;20040;-77
2021/03/06 08:28:35;;;;;;;15.77;8.32;;;12.20;50.90;;;;;;6106723;29;20481;-77
2021/03/06 08:31:38;;;;;;;16.55;7.80;;;12.20;50.80;;;;;;6093350;29;20165;-77
2021/03/06 08:34:47;;;;;;;20.02;8.23;;;12.30;50.60;;;;;;6105569;29;20047;-77
2021/03/06 08:37:49;;;;;;;22.60;8.90;;;12.30;50.60;;;;;;6097826;29;20043;-77
2021/03/06 08:40:53;;;;;;;20.58;8.10;;;12.40;50.50;;;;;;6099077;29;20060;-77
2021/03/06 08:43:54;;;;;;;17.05;8.10;;;12.50;50.30;;;;;;6097415;29;20028;-77
2021/03/06 08:46:55;;;;;;;15.52;6.97;;;12.50;50.30;;;;;;6102620;29;20173;-78
2021/03/06 08:49:59;;;;;;;17.02;7.30;;;12.60;50.30;;;;;;6111815;29;20042;-77
2021/03/06 08:53:07;;;;;;;21.08;8.38;;;12.70;50.20;;;;;;6108426;29;20110;-76
2021/03/06 08:56:08;;;;;;;15.40;7.03;;;12.80;50.00;;;;;;6089267;29;20053;-78
2021/03/06 08:59:09;;;;;;;19.40;8.30;;;12.90;49.60;;;;;;6101877;29;20478;-78
2021/03/06 09:02:17;;;;;;;23.60;9.38;;;13.00;49.50;;;;;;6098944;29;20048;-78
2021/03/06 09:05:20;;;;;;;15.80;7.78;;;13.10;49.50;;;;;;6117819;29;20074;-79
2021/03/06 09:08:22;;;;;;;23.45;8.85;;;13.20;49.00;;;;;;6091473;29;20335;-78
2021/03/06 09:11:24;;;;;;;17.73;7.70;;;13.30;48.70;;;;;;6123273;29;20345;-77
2021/03/06 09:14:25;;;;;;;21.00;8.30;;;13.50;48.60;;;;;;6110711;29;20063;-79
2021/03/06 09:17:26;;;;;;;21.00;9.60;;;13.50;48.30;;;;;;6085094;29;20032;-77
2021/03/06 09:20:31;;;;;;;17.92;8.48;;;13.70;48.20;;;;;;6107027;29;20465;-78
2021/03/06 09:23:45;;;;;;;19.63;8.57;;;13.80;48.00;;;;;;6109532;29;20035;-77
2021/03/06 09:26:51;;;;;;;16.55;7.70;;;13.90;47.90;;;;;;6105187;29;20508;-78
2021/03/06 09:29:52;;;;;;;19.65;8.70;;;14.00;47.40;;;;;;6122010;29;20040;-76
2021/03/06 09:32:54;;;;;;;19.73;8.23;;;14.20;47.30;;;;;;6105237;29;20680;-77
2021/03/06 09:35:59;;;;;;;19.08;8.10;;;14.20;47.30;;;;;;6109175;29;20035;-77
2021/03/06 09:39:05;;;;;;;18.08;8.60;;;14.30;47.20;;;;;;6104431;29;20043;-78
2021/03/06 09:42:06;;;;;;;20.33;8.70;;;14.40;46.60;;;;;;6104963;29;20044;-77
2021/03/06 09:45:07;;;;;;;21.23;9.63;;;14.50;46.50;;;;;;6110870;29;20044;-77
2021/03/06 09:48:16;;;;;;;20.10;9.18;;;14.50;46.30;;;;;;6126853;29;20334;-77
2021/03/06 09:51:17;;;;;;;24.48;9.63;;;14.60;46.30;;;;;;6092425;29;20031;-77
2021/03/06 09:54:21;;;;;;;18.05;8.57;;;14.70;46.40;;;;;;6109234;29;20046;-77
2021/03/06 09:57:25;;;;;;;20.13;9.60;;;14.80;46.20;;;;;;6102698;29;20059;-77
2021/03/06 10:00:27;;;;;;;20.40;9.07;;;14.90;46.10;;;;;;6127742;29;20054;-80
2021/03/06 10:03:33;;;;;;;17.92;8.55;;;15.10;45.80;;;;;;6142244;28;20043;-78
2021/03/06 10:06:36;;;;;;;20.65;9.85;;;15.20;45.40;;;;;;6133920;29;20063;-77
2021/03/06 10:09:39;;;;;;;30.65;10.70;;;15.20;44.90;;;;;;6118196;28;20047;-78
2021/03/06 10:12:44;;;;;;;54.58;20.73;;;15.30;44.60;;;;;;6139778;28;20047;-78
2021/03/06 10:15:46;;;;;;;22.65;10.05;;;15.20;44.50;;;;;;6140730;28;20046;-76
2021/03/06 10:18:47;;;;;;;18.67;8.93;;;15.20;44.50;;;;;;6145645;28;20102;-76
2021/03/06 10:22:10;;;;;;;35.30;14.65;;;15.20;44.50;;;;;;6126937;28;20047;-78
2021/03/06 10:25:22;;;;;;;23.42;11.45;;;15.20;44.30;;;;;;6142995;28;20043;-77
2021/03/06 10:28:30;;;;;;;26.00;10.32;;;15.30;44.20;;;;;;6146315;28;20039;-78
2021/03/06 10:31:35;;;;;;;32.85;13.00;;;15.30;44.20;;;;;;6110442;28;20515;-77
2021/03/06 10:34:41;;;;;;;24.55;9.90;;;15.40;44.00;;;;;;6122636;28;20114;-78
2021/03/06 10:38:02;;;;;;;24.17;10.25;;;15.60;44.00;;;;;;6116067;28;20051;-79
2021/03/06 10:41:06;;;;;;;22.90;9.30;;;15.80;43.80;;;;;;6102473;28;20043;-78
2021/03/06 10:44:07;;;;;;;22.60;8.63;;;16.10;43.20;;;;;;6150060;28;20131;-78
2021/03/06 10:47:08;;;;;;;20.25;8.82;;;16.20;42.80;;;;;;6127411;28;20054;-78
2021/03/06 10:50:30;;;;;;;20.02;9.80;;;16.40;42.70;;;;;;6116603;28;20036;-78
2021/03/06 10:53:31;;;;;;;25.30;9.85;;;16.60;42.40;;;;;;6127181;28;20465;-77
2021/03/06 10:56:32;;;;;;;28.70;9.90;;;16.90;41.90;;;;;;6149781;28;20046;-78
2021/03/06 10:59:35;;;;;;;22.83;9.57;;;17.10;41.50;;;;;;6116200;28;20028;-76
2021/03/06 11:02:36;;;;;;;21.45;10.48;;;17.20;41.40;;;;;;6149169;28;20035;-78
2021/03/06 11:05:39;;;;;;;28.08;9.40;;;17.40;41.90;;;;;;6138897;28;20035;-78
2021/03/06 11:08:41;;;;;;;21.33;9.20;;;17.60;41.00;;;;;;6117579;29;20035;-79
2021/03/06 11:11:42;;;;;;;17.77;9.40;;;17.70;40.70;;;;;;6132444;28;20074;-77
2021/03/06 11:14:43;;;;;;;22.70;9.82;;;18.00;40.60;;;;;;6115696;29;20032;-77
2021/03/06 11:17:51;;;;;;;19.05;8.82;;;18.00;40.30;;;;;;6115214;29;20241;-78
2021/03/06 11:20:52;;;;;;;20.52;9.60;;;18.00;39.60;;;;;;6131164;29;20497;-78
2021/03/06 11:23:53;;;;;;;18.88;8.98;;;18.00;40.10;;;;;;6121171;29;20050;-78
2021/03/06 11:26:56;;;;;;;20.33;9.85;;;18.10;39.20;;;;;;6124295;28;20038;-77
2021/03/06 11:29:57;;;;;;;18.90;9.38;;;18.10;39.10;;;;;;6127383;28;20045;-77
2021/03/06 11:33:01;;;;;;;18.83;9.68;;;18.30;39.10;;;;;;6122283;28;20054;-77
2021/03/06 11:36:03;;;;;;;18.70;9.75;;;18.40;38.50;;;;;;6117799;28;20043;-77
2021/03/06 11:39:04;;;;;;;21.85;10.32;;;18.50;38.20;;;;;;6099517;29;20039;-78
2021/03/06 11:42:07;;;;;;;22.23;10.48;;;18.70;37.90;;;;;;6126992;29;20098;-78
2021/03/06 11:45:10;;;;;;;18.85;9.40;;;18.80;37.50;;;;;;6131136;28;20043;-77
2021/03/06 11:48:12;;;;;;;19.48;8.52;;;19.00;37.50;;;;;;6124351;28;20126;-78
2021/03/06 11:51:12;;;;;;;17.98;8.57;;;19.20;36.60;;;;;;6148228;28;20046;-78
2021/03/06 11:54:14;;;;;;;19.80;9.45;;;19.30;36.20;;;;;;6130464;28;20086;-78
2021/03/06 11:57:14;;;;;;;23.85;9.75;;;19.60;36.10;;;;;;6143096;28;20122;-76
2021/03/06 12:00:21;;;;;;;20.05;9.32;;;19.90;35.70;;;;;;6133026;28;20102;-77
2021/03/06 12:03:22;;;;;;;20.70;9.25;;;20.20;34.90;;;;;;6133363;28;20054;-77
2021/03/06 12:06:23;;;;;;;25.60;9.98;;;20.40;34.60;;;;;;6136115;28;20071;-79
2021/03/06 12:09:24;;;;;;;17.48;9.07;;;20.60;34.30;;;;;;6115766;28;20117;-78
2021/03/06 12:12:25;;;;;;;20.58;9.73;;;20.70;33.80;;;;;;6134529;28;20043;-78
2021/03/06 12:15:26;;;;;;;21.02;9.20;;;21.00;33.60;;;;;;6149260;28;20464;-77
2021/03/06 12:18:27;;;;;;;19.90;9.57;;;21.50;32.90;;;;;;6131594;29;20122;-78
2021/03/06 12:21:28;;;;;;;22.20;9.00;;;21.80;32.30;;;;;;6138081;29;20039;-77
2021/03/06 12:24:29;;;;;;;18.48;9.48;;;22.10;31.70;;;;;;6139096;29;20039;-77
2021/03/06 12:27:30;;;;;;;22.67;9.82;;;22.30;31.10;;;;;;6128623;28;20047;-77
2021/03/06 12:30:31;;;;;;;20.70;9.85;;;22.40;30.60;;;;;;6145011;28;20046;-77
2021/03/06 12:33:32;;;;;;;21.52;9.45;;;22.50;30.60;;;;;;6153245;28;20426;-78
2021/03/06 12:36:34;;;;;;;21.58;10.50;;;22.60;30.60;;;;;;6118327;28;20050;-78
2021/03/06 12:39:35;;;;;;;18.27;10.13;;;23.00;30.20;;;;;;6128091;28;20090;-77
2021/03/06 12:42:37;;;;;;;17.92;9.65;;;23.30;30.00;;;;;;6133548;29;20065;-79
2021/03/06 12:45:38;;;;;;;18.38;9.90;;;23.60;29.40;;;;;;6147936;28;20100;-78
2021/03/06 12:48:39;;;;;;;20.40;9.20;;;23.80;29.30;;;;;;6157233;28;20094;-78
2021/03/06 12:51:39;;;;;;;21.58;9.68;;;23.80;28.80;;;;;;6130304;29;20048;-78
2021/03/06 12:54:40;;;;;;;23.00;9.07;;;23.90;28.90;;;;;;6120617;28;20110;-78
2021/03/06 12:57:41;;;;;;;15.43;8.43;;;23.90;28.90;;;;;;6129706;29;20106;-79
2021/03/06 13:00:43;;;;;;;19.65;9.25;;;23.60;29.00;;;;;;6109227;29;20529;-78
2021/03/06 13:03:44;;;;;;;17.83;9.50;;;23.40;29.50;;;;;;6126298;29;20036;-78
2021/03/06 13:06:47;;;;;;;20.77;9.80;;;23.40;29.40;;;;;;6127754;29;20441;-79
2021/03/06 13:09:48;;;;;;;22.63;10.18;;;23.20;29.60;;;;;;6126952;29;20075;-78
2021/03/06 13:12:51;;;;;;;17.52;9.77;;;23.10;29.70;;;;;;6127032;29;20042;-77
2021/03/06 13:15:51;;;;;;;18.50;9.73;;;23.00;29.80;;;;;;6121442;29;20051;-79
2021/03/06 13:18:52;;;;;;;18.27;9.20;;;22.50;30.30;;;;;;6126159;29;20071;-77
2021/03/06 13:21:54;;;;;;;22.88;10.50;;;22.00;31.20;;;;;;6116300;29;20030;-79
2021/03/06 13:25:37;;;;;;;19.35;9.35;;;21.40;31.70;;;;;;6125116;29;20043;-80
2021/03/06 13:28:38;;;;;;;22.55;9.55;;;20.70;32.90;;;;;;6122343;29;20183;-78
2021/03/06 13:31:39;;;;;;;16.70;9.02;;;20.20;33.70;;;;;;6107681;29;20039;-79
2021/03/06 13:34:40;;;;;;;20.27;9.60;;;19.90;34.30;;;;;;6112686;28;20119;-76
2021/03/06 13:37:41;;;;;;;19.27;9.13;;;19.50;35.00;;;;;;6118602;28;20043;-78
2021/03/06 13:40:43;;;;;;;18.35;9.00;;;19.30;35.50;;;;;;6138211;29;20228;-78
2021/03/06 13:43:44;;;;;;;20.73;9.13;;;19.00;35.70;;;;;;6122521;29;20031;-77
2021/03/06 13:46:45;;;;;;;20.85;7.80;;;18.70;36.20;;;;;;6118078;29;20032;-78
2021/03/06 13:49:46;;;;;;;21.33;8.20;;;18.50;36.70;;;;;;6100336;29;20051;-77
2021/03/06 13:52:48;;;;;;;17.70;7.85;;;18.40;37.50;;;;;;6119094;29;20040;-78
2021/03/06 13:55:49;;;;;;;17.13;7.55;;;18.30;37.00;;;;;;6125734;29;20130;-78
2021/03/06 13:58:50;;;;;;;18.63;8.27;;;18.30;37.20;;;;;;6125282;29;20035;-78
2021/03/06 14:01:51;;;;;;;20.67;8.30;;;18.30;37.40;;;;;;6125070;29;20122;-77
2021/03/06 14:04:53;;;;;;;23.35;8.52;;;18.20;37.50;;;;;;6108662;29;20044;-79
2021/03/06 14:07:54;;;;;;;17.42;8.60;;;18.10;37.60;;;;;;6107990;28;20035;-78
2021/03/06 14:10:55;;;;;;;16.70;7.75;;;18.00;37.90;;;;;;6123348;29;20131;-77
2021/03/06 14:13:57;;;;;;;16.92;7.32;;;18.00;38.10;;;;;;6124449;29;20354;-77
2021/03/06 14:16:58;;;;;;;29.20;8.88;;;18.00;38.10;;;;;;6122071;29;20115;-77
2021/03/06 14:19:59;;;;;;;16.90;8.02;;;17.90;38.30;;;;;;6124132;29;20488;-78
2021/03/06 14:23:00;;;;;;;19.50;7.20;;;17.80;38.50;;;;;;6124539;29;20036;-78
2021/03/06 14:26:02;;;;;;;17.30;7.40;;;17.80;38.70;;;;;;6122706;29;20388;-78
2021/03/06 14:29:04;;;;;;;21.67;9.05;;;17.80;38.80;;;;;;6092558;29;20453;-77
2021/03/06 14:32:05;;;;;;;19.55;9.57;;;17.80;39.00;;;;;;6127096;29;20391;-77
2021/03/06 14:35:07;;;;;;;17.77;7.47;;;17.80;39.20;;;;;;6106446;29;20054;-77
2021/03/06 14:38:09;;;;;;;16.88;9.00;;;17.80;39.30;;;;;;6122919;29;20036;-76
2021/03/06 14:41:10;;;;;;;21.67;9.40;;;17.80;39.40;;;;;;6125649;29;20077;-77
2021/03/06 14:44:11;;;;;;;22.13;8.50;;;17.80;39.40;;;;;;6127698;28;20588;-78
2021/03/06 14:47:12;;;;;;;20.02;9.30;;;17.80;39.50;;;;;;6108166;29;20431;-78
2021/03/06 14:50:13;;;;;;;19.60;9.40;;;17.80;39.60;;;;;;6124341;29;20031;-78
2021/03/06 14:53:17;;;;;;;19.95;9.02;;;17.80;39.70;;;;;;6122916;29;20366;-77
2021/03/06 14:56:22;;;;;;;27.88;9.32;;;17.80;39.80;;;;;;6121944;29;20048;-77
2021/03/06 14:59:23;;;;;;;21.77;8.75;;;17.80;39.80;;;;;;6121321;29;20063;-76
2021/03/06 15:02:24;;;;;;;17.88;8.25;;;17.90;39.80;;;;;;6115750;29;20040;-76
2021/03/06 15:05:31;;;;;;;22.20;8.63;;;17.90;39.80;;;;;;6130547;28;20050;-78
2021/03/06 15:08:34;;;;;;;23.33;9.45;;;17.90;39.80;;;;;;6128807;28;20432;-78
2021/03/06 15:11:35;;;;;;;20.88;8.38;;;17.90;39.80;;;;;;6138965;28;20039;-77
2021/03/06 15:14:36;;;;;;;21.98;9.48;;;17.90;39.90;;;;;;6114942;28;20109;-78
2021/03/06 15:17:38;;;;;;;26.20;9.95;;;17.90;40.60;;;;;;6111573;29;20090;-77
2021/03/06 15:20:41;;;;;;;23.70;10.35;;;17.90;40.10;;;;;;6117942;28;20115;-77
2021/03/06 15:23:42;;;;;;;26.75;8.95;;;17.80;40.20;;;;;;6127316;28;20031;-78
2021/03/06 15:26:43;;;;;;;21.60;8.80;;;17.80;40.30;;;;;;6115357;29;20342;-78
2021/03/06 15:29:44;;;;;;;22.65;9.20;;;17.80;40.40;;;;;;6113946;28;20039;-79
2021/03/06 15:32:45;;;;;;;22.40;9.57;;;17.80;40.50;;;;;;6143885;28;20054;-78
2021/03/06 15:35:48;;;;;;;21.25;10.35;;;17.80;40.50;;;;;;6116801;29;20055;-78
2021/03/06 15:38:49;;;;;;;21.50;9.32;;;17.90;40.50;;;;;;6111855;29;20376;-77
2021/03/06 15:41:51;;;;;;;23.38;9.63;;;17.90;40.50;;;;;;6110723;29;20043;-77
2021/03/06 15:44:52;;;;;;;19.55;8.95;;;17.80;40.60;;;;;;6129029;28;20523;-79